sensor_id;sensor_type;location;lat;lon;timestamp;temperature;humidity
68865;DHT22;55898;52.196;4.420;2022-07-17T00:01:57;17.50;62.55
68865;DHT22;55898;52.196;4.420;2022-07-17T00:04:23;17.50;62.82
68865;DHT22;55898;52.196;4.420;2022-07-17T00:06:49;17.47;62.88
68865;DHT22;55898;52.196;4.420;2022-07-17T00:09:14;17.51;63.00
68865;DHT22;55898;52.196;4.420;2022-07-17T00:11:40;17.48;62.94
68865;DHT22;55898;52.196;4.420;2022-07-17T00:14:07;17.50;62.83
68865;DHT22;55898;52.196;4.420;2022-07-17T00:16:32;17.44;63.00
68865;DHT22;55898;52.196;4.420;2022-07-17T00:18:57;17.34;63.44
68865;DHT22;55898;52.196;4.420;2022-07-17T00:21:23;17.34;63.54
68865;DHT22;55898;52.196;4.420;2022-07-17T00:23:49;17.27;63.64
68865;DHT22;55898;52.196;4.420;2022-07-17T00:26:14;17.21;64.09
68865;DHT22;55898;52.196;4.420;2022-07-17T00:28:40;17.17;64.14
68865;DHT22;55898;52.196;4.420;2022-07-17T00:31:05;17.21;64.03
68865;DHT22;55898;52.196;4.420;2022-07-17T00:33:31;17.24;63.97
68865;DHT22;55898;52.196;4.420;2022-07-17T00:35:57;17.27;64.12
68865;DHT22;55898;52.196;4.420;2022-07-17T00:38:23;17.23;64.03
68865;DHT22;55898;52.196;4.420;2022-07-17T00:40:48;17.17;64.15
68865;DHT22;55898;52.196;4.420;2022-07-17T00:43:14;17.14;64.53
68865;DHT22;55898;52.196;4.420;2022-07-17T00:45:39;17.10;64.69
68865;DHT22;55898;52.196;4.420;2022-07-17T00:48:09;17.00;65.19
68865;DHT22;55898;52.196;4.420;2022-07-17T00:50:39;16.99;65.27
68865;DHT22;55898;52.196;4.420;2022-07-17T00:53:06;16.99;65.53
68865;DHT22;55898;52.196;4.420;2022-07-17T00:55:32;16.99;65.61
68865;DHT22;55898;52.196;4.420;2022-07-17T00:58:01;17.03;65.38
68865;DHT22;55898;52.196;4.420;2022-07-17T01:00:27;17.09;65.32
68865;DHT22;55898;52.196;4.420;2022-07-17T01:02:54;17.11;65.20
68865;DHT22;55898;52.196;4.420;2022-07-17T01:05:22;17.11;65.22
68865;DHT22;55898;52.196;4.420;2022-07-17T01:07:48;17.19;64.84
68865;DHT22;55898;52.196;4.420;2022-07-17T01:10:16;17.21;64.88
68865;DHT22;55898;52.196;4.420;2022-07-17T01:12:44;17.16;64.92
68865;DHT22;55898;52.196;4.420;2022-07-17T01:15:12;17.11;65.30
68865;DHT22;55898;52.196;4.420;2022-07-17T01:17:37;17.07;65.29
68865;DHT22;55898;52.196;4.420;2022-07-17T01:20:05;17.02;65.46
68865;DHT22;55898;52.196;4.420;2022-07-17T01:22:31;16.94;65.74
68865;DHT22;55898;52.196;4.420;2022-07-17T01:24:56;16.86;66.03
68865;DHT22;55898;52.196;4.420;2022-07-17T01:27:22;16.79;66.21
68865;DHT22;55898;52.196;4.420;2022-07-17T01:29:47;16.75;66.37
68865;DHT22;55898;52.196;4.420;2022-07-17T01:32:13;16.71;66.55
68865;DHT22;55898;52.196;4.420;2022-07-17T01:34:38;16.66;66.86
68865;DHT22;55898;52.196;4.420;2022-07-17T01:37:04;16.68;66.88
68865;DHT22;55898;52.196;4.420;2022-07-17T01:39:29;16.68;66.97
68865;DHT22;55898;52.196;4.420;2022-07-17T01:42:13;16.69;67.16
68865;DHT22;55898;52.196;4.420;2022-07-17T01:44:39;16.69;66.91
68865;DHT22;55898;52.196;4.420;2022-07-17T01:47:05;16.73;67.22
68865;DHT22;55898;52.196;4.420;2022-07-17T01:49:30;16.71;67.05
68865;DHT22;55898;52.196;4.420;2022-07-17T01:51:56;16.68;67.40
68865;DHT22;55898;52.196;4.420;2022-07-17T01:54:26;16.69;67.50
68865;DHT22;55898;52.196;4.420;2022-07-17T01:56:52;16.61;67.68
68865;DHT22;55898;52.196;4.420;2022-07-17T01:59:17;16.53;67.76
68865;DHT22;55898;52.196;4.420;2022-07-17T02:01:43;16.45;68.13
68865;DHT22;55898;52.196;4.420;2022-07-17T02:04:08;16.40;68.19
68865;DHT22;55898;52.196;4.420;2022-07-17T02:06:34;16.35;68.39
68865;DHT22;55898;52.196;4.420;2022-07-17T02:08:59;16.34;68.58
68865;DHT22;55898;52.196;4.420;2022-07-17T02:11:25;16.31;68.79
68865;DHT22;55898;52.196;4.420;2022-07-17T02:13:50;16.32;68.75
68865;DHT22;55898;52.196;4.420;2022-07-17T02:16:16;16.35;68.49
68865;DHT22;55898;52.196;4.420;2022-07-17T02:18:41;16.35;68.69
68865;DHT22;55898;52.196;4.420;2022-07-17T02:21:07;16.38;68.94
68865;DHT22;55898;52.196;4.420;2022-07-17T02:23:32;16.34;68.99
68865;DHT22;55898;52.196;4.420;2022-07-17T02:25:57;16.34;69.13
68865;DHT22;55898;52.196;4.420;2022-07-17T02:28:23;16.35;69.17
68865;DHT22;55898;52.196;4.420;2022-07-17T02:30:49;16.26;69.42
68865;DHT22;55898;52.196;4.420;2022-07-17T02:33:14;16.22;69.81
68865;DHT22;55898;52.196;4.420;2022-07-17T02:35:40;16.17;70.04
68865;DHT22;55898;52.196;4.420;2022-07-17T02:38:06;16.10;70.14
68865;DHT22;55898;52.196;4.420;2022-07-17T02:40:31;16.10;70.20
68865;DHT22;55898;52.196;4.420;2022-07-17T02:42:58;16.08;70.60
68865;DHT22;55898;52.196;4.420;2022-07-17T02:45:23;16.08;70.68
68865;DHT22;55898;52.196;4.420;2022-07-17T02:47:53;15.98;70.89
68865;DHT22;55898;52.196;4.420;2022-07-17T02:50:21;15.96;71.14
68865;DHT22;55898;52.196;4.420;2022-07-17T02:52:47;15.91;71.26
68865;DHT22;55898;52.196;4.420;2022-07-17T02:55:14;15.90;71.37
68865;DHT22;55898;52.196;4.420;2022-07-17T02:57:40;15.83;71.35
68865;DHT22;55898;52.196;4.420;2022-07-17T03:00:08;15.82;71.49
68865;DHT22;55898;52.196;4.420;2022-07-17T03:02:35;15.77;71.59
68865;DHT22;55898;52.196;4.420;2022-07-17T03:05:01;15.73;71.76
68865;DHT22;55898;52.196;4.420;2022-07-17T03:07:27;15.69;71.82
68865;DHT22;55898;52.196;4.420;2022-07-17T03:09:52;15.67;71.92
68865;DHT22;55898;52.196;4.420;2022-07-17T03:12:18;15.67;71.95
68865;DHT22;55898;52.196;4.420;2022-07-17T03:14:43;15.65;72.13
68865;DHT22;55898;52.196;4.420;2022-07-17T03:17:09;15.62;72.21
68865;DHT22;55898;52.196;4.420;2022-07-17T03:19:35;15.59;72.21
68865;DHT22;55898;52.196;4.420;2022-07-17T03:22:00;15.53;72.33
68865;DHT22;55898;52.196;4.420;2022-07-17T03:24:26;15.47;72.37
68865;DHT22;55898;52.196;4.420;2022-07-17T03:26:51;15.43;72.33
68865;DHT22;55898;52.196;4.420;2022-07-17T03:29:17;15.39;72.56
68865;DHT22;55898;52.196;4.420;2022-07-17T03:31:43;15.35;72.47
68865;DHT22;55898;52.196;4.420;2022-07-17T03:34:09;15.35;72.57
68865;DHT22;55898;52.196;4.420;2022-07-17T03:36:34;15.36;72.32
68865;DHT22;55898;52.196;4.420;2022-07-17T03:39:00;15.39;72.30
68865;DHT22;55898;52.196;4.420;2022-07-17T03:41:26;15.38;72.14
68865;DHT22;55898;52.196;4.420;2022-07-17T03:43:51;15.34;72.14
68865;DHT22;55898;52.196;4.420;2022-07-17T03:46:17;15.28;72.29
68865;DHT22;55898;52.196;4.420;2022-07-17T03:48:42;15.25;72.45
68865;DHT22;55898;52.196;4.420;2022-07-17T03:51:08;15.22;72.53
68865;DHT22;55898;52.196;4.420;2022-07-17T03:53:34;15.16;72.43
68865;DHT22;55898;52.196;4.420;2022-07-17T03:55:59;15.09;72.58
68865;DHT22;55898;52.196;4.420;2022-07-17T03:58:25;15.11;72.63
68865;DHT22;55898;52.196;4.420;2022-07-17T04:00:50;15.18;72.52
68865;DHT22;55898;52.196;4.420;2022-07-17T04:03:16;15.18;72.48
68865;DHT22;55898;52.196;4.420;2022-07-17T04:05:41;15.15;72.50
68865;DHT22;55898;52.196;4.420;2022-07-17T04:08:07;15.16;72.44
68865;DHT22;55898;52.196;4.420;2022-07-17T04:10:32;15.14;72.66
68865;DHT22;55898;52.196;4.420;2022-07-17T04:12:58;15.15;72.31
68865;DHT22;55898;52.196;4.420;2022-07-17T04:15:23;15.16;72.24
68865;DHT22;55898;52.196;4.420;2022-07-17T04:18:08;15.14;72.59
68865;DHT22;55898;52.196;4.420;2022-07-17T04:20:33;15.14;72.35
68865;DHT22;55898;52.196;4.420;2022-07-17T04:22:59;15.15;72.63
68865;DHT22;55898;52.196;4.420;2022-07-17T04:25:24;15.22;72.59
68865;DHT22;55898;52.196;4.420;2022-07-17T04:27:50;15.22;72.62
68865;DHT22;55898;52.196;4.420;2022-07-17T04:30:16;15.26;72.92
68865;DHT22;55898;52.196;4.420;2022-07-17T04:32:41;15.26;72.94
68865;DHT22;55898;52.196;4.420;2022-07-17T04:35:07;15.24;72.74
68865;DHT22;55898;52.196;4.420;2022-07-17T04:37:33;15.19;72.82
68865;DHT22;55898;52.196;4.420;2022-07-17T04:39:58;15.18;73.09
68865;DHT22;55898;52.196;4.420;2022-07-17T04:42:24;15.19;73.11
68865;DHT22;55898;52.196;4.420;2022-07-17T04:44:49;15.22;73.06
68865;DHT22;55898;52.196;4.420;2022-07-17T04:47:15;15.25;73.32
68865;DHT22;55898;52.196;4.420;2022-07-17T04:49:40;15.26;73.37
68865;DHT22;55898;52.196;4.420;2022-07-17T04:52:05;15.28;73.39
68865;DHT22;55898;52.196;4.420;2022-07-17T04:54:31;15.29;73.48
68865;DHT22;55898;52.196;4.420;2022-07-17T04:56:56;15.31;73.57
68865;DHT22;55898;52.196;4.420;2022-07-17T04:59:22;15.31;73.69
68865;DHT22;55898;52.196;4.420;2022-07-17T05:01:47;15.29;74.04
68865;DHT22;55898;52.196;4.420;2022-07-17T05:04:13;15.28;74.34
68865;DHT22;55898;52.196;4.420;2022-07-17T05:06:38;15.28;74.10
68865;DHT22;55898;52.196;4.420;2022-07-17T05:09:04;15.32;74.13
68865;DHT22;55898;52.196;4.420;2022-07-17T05:11:29;15.35;74.21
68865;DHT22;55898;52.196;4.420;2022-07-17T05:13:54;15.36;74.15
68865;DHT22;55898;52.196;4.420;2022-07-17T05:16:20;15.35;74.42
68865;DHT22;55898;52.196;4.420;2022-07-17T05:18:45;15.40;74.39
68865;DHT22;55898;52.196;4.420;2022-07-17T05:21:11;15.46;74.69
68865;DHT22;55898;52.196;4.420;2022-07-17T05:23:36;15.50;74.74
68865;DHT22;55898;52.196;4.420;2022-07-17T05:26:02;15.55;74.64
68865;DHT22;55898;52.196;4.420;2022-07-17T05:28:27;15.59;74.53
68865;DHT22;55898;52.196;4.420;2022-07-17T05:30:53;15.65;74.40
68865;DHT22;55898;52.196;4.420;2022-07-17T05:33:19;15.74;74.16
68865;DHT22;55898;52.196;4.420;2022-07-17T05:35:44;15.82;74.11
68865;DHT22;55898;52.196;4.420;2022-07-17T05:38:10;15.91;73.98
68865;DHT22;55898;52.196;4.420;2022-07-17T05:40:36;16.01;73.68
68865;DHT22;55898;52.196;4.420;2022-07-17T05:43:01;16.07;72.60
68865;DHT22;55898;52.196;4.420;2022-07-17T05:45:27;16.11;71.77
68865;DHT22;55898;52.196;4.420;2022-07-17T05:47:52;16.14;71.54
68865;DHT22;55898;52.196;4.420;2022-07-17T05:50:18;16.17;71.28
68865;DHT22;55898;52.196;4.420;2022-07-17T05:52:43;16.25;71.14
68865;DHT22;55898;52.196;4.420;2022-07-17T05:55:09;16.32;71.27
68865;DHT22;55898;52.196;4.420;2022-07-17T05:57:34;16.41;71.35
68865;DHT22;55898;52.196;4.420;2022-07-17T06:00:00;16.49;71.04
68865;DHT22;55898;52.196;4.420;2022-07-17T06:02:26;16.52;69.93
68865;DHT22;55898;52.196;4.420;2022-07-17T06:04:51;16.56;69.65
68865;DHT22;55898;52.196;4.420;2022-07-17T06:07:17;16.65;69.72
68865;DHT22;55898;52.196;4.420;2022-07-17T06:09:42;16.68;68.34
68865;DHT22;55898;52.196;4.420;2022-07-17T06:12:08;16.73;67.87
68865;DHT22;55898;52.196;4.420;2022-07-17T06:14:33;16.80;68.15
68865;DHT22;55898;52.196;4.420;2022-07-17T06:16:59;16.87;68.46
68865;DHT22;55898;52.196;4.420;2022-07-17T06:19:24;16.96;68.29
68865;DHT22;55898;52.196;4.420;2022-07-17T06:21:50;17.00;67.36
68865;DHT22;55898;52.196;4.420;2022-07-17T06:24:15;17.04;66.94
68865;DHT22;55898;52.196;4.420;2022-07-17T06:26:41;17.07;65.78
68865;DHT22;55898;52.196;4.420;2022-07-17T06:29:07;17.11;65.15
68865;DHT22;55898;52.196;4.420;2022-07-17T06:31:32;17.17;65.73
68865;DHT22;55898;52.196;4.420;2022-07-17T06:33:57;17.19;64.90
68865;DHT22;55898;52.196;4.420;2022-07-17T06:36:23;17.21;64.91
68865;DHT22;55898;52.196;4.420;2022-07-17T06:38:48;17.27;65.18
68865;DHT22;55898;52.196;4.420;2022-07-17T06:41:14;17.30;65.58
68865;DHT22;55898;52.196;4.420;2022-07-17T06:43:39;17.34;64.53
68865;DHT22;55898;52.196;4.420;2022-07-17T06:46:05;17.41;64.76
68865;DHT22;55898;52.196;4.420;2022-07-17T06:48:30;17.44;63.85
68865;DHT22;55898;52.196;4.420;2022-07-17T06:50:56;17.50;63.72
68865;DHT22;55898;52.196;4.420;2022-07-17T06:53:21;17.55;63.08
68865;DHT22;55898;52.196;4.420;2022-07-17T06:55:47;17.59;62.93
68865;DHT22;55898;52.196;4.420;2022-07-17T06:58:12;17.67;63.20
68865;DHT22;55898;52.196;4.420;2022-07-17T07:00:39;17.69;62.12
68865;DHT22;55898;52.196;4.420;2022-07-17T07:03:04;17.75;61.99
68865;DHT22;55898;52.196;4.420;2022-07-17T07:05:30;17.78;61.71
68865;DHT22;55898;52.196;4.420;2022-07-17T07:07:55;17.86;61.79
68865;DHT22;55898;52.196;4.420;2022-07-17T07:10:21;17.83;61.60
68865;DHT22;55898;52.196;4.420;2022-07-17T07:12:46;17.92;61.09
68865;DHT22;55898;52.196;4.420;2022-07-17T07:15:12;17.95;61.05
68865;DHT22;55898;52.196;4.420;2022-07-17T07:17:37;18.02;61.21
68865;DHT22;55898;52.196;4.420;2022-07-17T07:20:04;18.08;60.90
68865;DHT22;55898;52.196;4.420;2022-07-17T07:22:30;18.09;60.02
68865;DHT22;55898;52.196;4.420;2022-07-17T07:24:56;18.20;60.05
68865;DHT22;55898;52.196;4.420;2022-07-17T07:27:21;18.23;59.68
68865;DHT22;55898;52.196;4.420;2022-07-17T07:29:47;18.26;59.54
68865;DHT22;55898;52.196;4.420;2022-07-17T07:32:13;18.30;59.64
68865;DHT22;55898;52.196;4.420;2022-07-17T07:34:39;18.36;59.30
68865;DHT22;55898;52.196;4.420;2022-07-17T07:37:05;18.44;58.58
68865;DHT22;55898;52.196;4.420;2022-07-17T07:39:30;18.48;58.25
68865;DHT22;55898;52.196;4.420;2022-07-17T07:41:56;18.54;58.32
68865;DHT22;55898;52.196;4.420;2022-07-17T07:44:21;18.58;58.29
68865;DHT22;55898;52.196;4.420;2022-07-17T07:46:47;18.61;57.51
68865;DHT22;55898;52.196;4.420;2022-07-17T07:49:12;18.64;56.39
68865;DHT22;55898;52.196;4.420;2022-07-17T07:51:38;18.72;56.50
68865;DHT22;55898;52.196;4.420;2022-07-17T07:54:03;18.75;57.05
68865;DHT22;55898;52.196;4.420;2022-07-17T07:56:28;18.77;55.55
68865;DHT22;55898;52.196;4.420;2022-07-17T07:58:54;18.81;55.99
68865;DHT22;55898;52.196;4.420;2022-07-17T08:01:19;18.96;56.06
68865;DHT22;55898;52.196;4.420;2022-07-17T08:03:45;18.98;55.07
68865;DHT22;55898;52.196;4.420;2022-07-17T08:06:10;19.05;55.23
68865;DHT22;55898;52.196;4.420;2022-07-17T08:08:36;19.14;54.69
68865;DHT22;55898;52.196;4.420;2022-07-17T08:11:02;19.19;55.23
68865;DHT22;55898;52.196;4.420;2022-07-17T08:13:27;19.20;55.15
68865;DHT22;55898;52.196;4.420;2022-07-17T08:15:53;19.26;55.33
68865;DHT22;55898;52.196;4.420;2022-07-17T08:18:18;19.32;54.33
68865;DHT22;55898;52.196;4.420;2022-07-17T08:20:44;19.33;53.72
68865;DHT22;55898;52.196;4.420;2022-07-17T08:23:09;19.42;53.59
68865;DHT22;55898;52.196;4.420;2022-07-17T08:25:35;19.39;52.19
68865;DHT22;55898;52.196;4.420;2022-07-17T08:28:01;19.45;51.64
68865;DHT22;55898;52.196;4.420;2022-07-17T08:30:27;19.53;53.33
68865;DHT22;55898;52.196;4.420;2022-07-17T08:32:52;19.57;52.53
68865;DHT22;55898;52.196;4.420;2022-07-17T08:35:18;19.64;53.58
68865;DHT22;55898;52.196;4.420;2022-07-17T08:37:50;19.71;53.56
68865;DHT22;55898;52.196;4.420;2022-07-17T08:40:24;19.84;52.71
68865;DHT22;55898;52.196;4.420;2022-07-17T08:42:52;19.88;53.20
68865;DHT22;55898;52.196;4.420;2022-07-17T08:45:18;19.90;53.24
68865;DHT22;55898;52.196;4.420;2022-07-17T08:47:44;20.01;53.41
68865;DHT22;55898;52.196;4.420;2022-07-17T08:50:11;20.08;52.84
68865;DHT22;55898;52.196;4.420;2022-07-17T08:52:40;20.11;53.78
68865;DHT22;55898;52.196;4.420;2022-07-17T08:55:15;20.21;53.40
68865;DHT22;55898;52.196;4.420;2022-07-17T08:57:43;20.28;52.70
68865;DHT22;55898;52.196;4.420;2022-07-17T09:00:11;20.31;52.54
68865;DHT22;55898;52.196;4.420;2022-07-17T09:02:38;20.31;51.97
68865;DHT22;55898;52.196;4.420;2022-07-17T09:05:06;20.31;52.36
68865;DHT22;55898;52.196;4.420;2022-07-17T09:07:32;20.32;52.17
68865;DHT22;55898;52.196;4.420;2022-07-17T09:09:57;20.48;52.50
68865;DHT22;55898;52.196;4.420;2022-07-17T09:12:29;20.56;52.54
68865;DHT22;55898;52.196;4.420;2022-07-17T09:14:55;20.62;53.58
68865;DHT22;55898;52.196;4.420;2022-07-17T09:17:21;20.75;52.68
68865;DHT22;55898;52.196;4.420;2022-07-17T09:19:50;20.79;52.17
68865;DHT22;55898;52.196;4.420;2022-07-17T09:22:22;20.86;51.46
68865;DHT22;55898;52.196;4.420;2022-07-17T09:24:54;20.93;51.48
68865;DHT22;55898;52.196;4.420;2022-07-17T09:29:52;21.07;51.28
68865;DHT22;55898;52.196;4.420;2022-07-17T09:32:24;21.14;51.41
68865;DHT22;55898;52.196;4.420;2022-07-17T09:34:52;21.11;50.92
68865;DHT22;55898;52.196;4.420;2022-07-17T09:37:18;21.18;50.75
68865;DHT22;55898;52.196;4.420;2022-07-17T09:39:46;21.23;51.40
68865;DHT22;55898;52.196;4.420;2022-07-17T09:42:29;21.39;50.80
68865;DHT22;55898;52.196;4.420;2022-07-17T09:47:25;21.44;50.48
68865;DHT22;55898;52.196;4.420;2022-07-17T09:49:55;21.63;50.00
68865;DHT22;55898;52.196;4.420;2022-07-17T09:52:24;21.79;48.46
68865;DHT22;55898;52.196;4.420;2022-07-17T09:54:52;21.93;48.50
68865;DHT22;55898;52.196;4.420;2022-07-17T09:57:23;21.99;48.26
68865;DHT22;55898;52.196;4.420;2022-07-17T09:59:53;22.06;47.92
68865;DHT22;55898;52.196;4.420;2022-07-17T10:02:19;22.12;46.35
68865;DHT22;55898;52.196;4.420;2022-07-17T10:04:46;22.17;46.15
68865;DHT22;55898;52.196;4.420;2022-07-17T10:07:12;22.20;46.24
68865;DHT22;55898;52.196;4.420;2022-07-17T10:09:38;22.27;45.86
68865;DHT22;55898;52.196;4.420;2022-07-17T10:12:06;22.34;45.75
68865;DHT22;55898;52.196;4.420;2022-07-17T10:14:34;22.37;44.50
68865;DHT22;55898;52.196;4.420;2022-07-17T10:17:11;22.40;44.99
68865;DHT22;55898;52.196;4.420;2022-07-17T10:19:49;22.48;45.73
68865;DHT22;55898;52.196;4.420;2022-07-17T10:22:16;22.53;45.00
68865;DHT22;55898;52.196;4.420;2022-07-17T10:24:52;22.55;44.08
68865;DHT22;55898;52.196;4.420;2022-07-17T10:27:26;22.53;46.41
68865;DHT22;55898;52.196;4.420;2022-07-17T10:30:07;22.63;46.68
68865;DHT22;55898;52.196;4.420;2022-07-17T10:32:35;22.72;45.86
68865;DHT22;55898;52.196;4.420;2022-07-17T10:35:05;22.74;46.24
68865;DHT22;55898;52.196;4.420;2022-07-17T10:37:38;22.78;46.74
68865;DHT22;55898;52.196;4.420;2022-07-17T10:42:45;22.91;45.99
68865;DHT22;55898;52.196;4.420;2022-07-17T10:47:50;23.11;49.74
68865;DHT22;55898;52.196;4.420;2022-07-17T10:50:18;23.25;46.75
68865;DHT22;55898;52.196;4.420;2022-07-17T10:52:44;23.36;45.19
68865;DHT22;55898;52.196;4.420;2022-07-17T10:55:21;23.41;44.76
68865;DHT22;55898;52.196;4.420;2022-07-17T10:57:48;23.53;45.39
68865;DHT22;55898;52.196;4.420;2022-07-17T11:00:16;23.66;44.96
68865;DHT22;55898;52.196;4.420;2022-07-17T11:02:44;23.64;44.34
68865;DHT22;55898;52.196;4.420;2022-07-17T11:05:14;23.75;45.26
68865;DHT22;55898;52.196;4.420;2022-07-17T11:07:57;23.87;44.97
68865;DHT22;55898;52.196;4.420;2022-07-17T11:10:27;24.01;44.31
68865;DHT22;55898;52.196;4.420;2022-07-17T11:12:55;24.08;44.68
68865;DHT22;55898;52.196;4.420;2022-07-17T11:18:26;24.41;42.13
68865;DHT22;55898;52.196;4.420;2022-07-17T11:23:21;24.73;40.17
68865;DHT22;55898;52.196;4.420;2022-07-17T11:26:01;24.84;41.07
68865;DHT22;55898;52.196;4.420;2022-07-17T11:28:42;24.97;41.94
68865;DHT22;55898;52.196;4.420;2022-07-17T11:31:26;25.11;41.38
68865;DHT22;55898;52.196;4.420;2022-07-17T11:33:58;25.33;42.65
68865;DHT22;55898;52.196;4.420;2022-07-17T11:38:51;25.55;42.07
68865;DHT22;55898;52.196;4.420;2022-07-17T11:41:17;25.51;43.58
68865;DHT22;55898;52.196;4.420;2022-07-17T11:43:44;25.79;44.15
68865;DHT22;55898;52.196;4.420;2022-07-17T11:46:10;26.34;43.49
68865;DHT22;55898;52.196;4.420;2022-07-17T11:48:40;27.26;41.77
68865;DHT22;55898;52.196;4.420;2022-07-17T11:51:06;28.15;40.37
68865;DHT22;55898;52.196;4.420;2022-07-17T11:53:34;28.83;37.27
68865;DHT22;55898;52.196;4.420;2022-07-17T11:56:00;29.72;37.26
68865;DHT22;55898;52.196;4.420;2022-07-17T11:58:28;30.45;34.49
68865;DHT22;55898;52.196;4.420;2022-07-17T12:01:01;30.95;34.08
68865;DHT22;55898;52.196;4.420;2022-07-17T12:03:27;31.63;33.04
68865;DHT22;55898;52.196;4.420;2022-07-17T12:05:53;31.87;31.38
68865;DHT22;55898;52.196;4.420;2022-07-17T12:08:19;32.00;30.32
68865;DHT22;55898;52.196;4.420;2022-07-17T12:10:48;32.36;30.77
68865;DHT22;55898;52.196;4.420;2022-07-17T12:15:49;33.31;31.11
68865;DHT22;55898;52.196;4.420;2022-07-17T12:18:24;33.46;29.35
68865;DHT22;55898;52.196;4.420;2022-07-17T12:20:52;33.55;28.95
68865;DHT22;55898;52.196;4.420;2022-07-17T12:23:34;34.08;29.75
68865;DHT22;55898;52.196;4.420;2022-07-17T12:26:06;34.10;29.69
68865;DHT22;55898;52.196;4.420;2022-07-17T12:28:33;34.22;29.06
68865;DHT22;55898;52.196;4.420;2022-07-17T12:30:59;34.13;29.02
68865;DHT22;55898;52.196;4.420;2022-07-17T12:33:24;33.98;28.92
68865;DHT22;55898;52.196;4.420;2022-07-17T12:35:50;34.36;29.55
68865;DHT22;55898;52.196;4.420;2022-07-17T12:38:16;34.52;29.49
68865;DHT22;55898;52.196;4.420;2022-07-17T12:40:41;34.39;28.47
68865;DHT22;55898;52.196;4.420;2022-07-17T12:43:08;33.81;29.00
68865;DHT22;55898;52.196;4.420;2022-07-17T12:45:34;33.95;29.48
68865;DHT22;55898;52.196;4.420;2022-07-17T12:48:00;34.26;30.00
68865;DHT22;55898;52.196;4.420;2022-07-17T12:50:25;34.54;28.62
68865;DHT22;55898;52.196;4.420;2022-07-17T12:52:51;34.47;28.58
68865;DHT22;55898;52.196;4.420;2022-07-17T12:55:17;34.64;28.57
68865;DHT22;55898;52.196;4.420;2022-07-17T12:57:42;35.21;28.20
68865;DHT22;55898;52.196;4.420;2022-07-17T13:00:09;35.45;27.12
68865;DHT22;55898;52.196;4.420;2022-07-17T13:02:35;35.37;27.87
68865;DHT22;55898;52.196;4.420;2022-07-17T13:05:00;35.15;28.47
68865;DHT22;55898;52.196;4.420;2022-07-17T13:07:26;35.35;28.15
68865;DHT22;55898;52.196;4.420;2022-07-17T13:09:52;36.15;27.44
68865;DHT22;55898;52.196;4.420;2022-07-17T13:12:17;36.58;26.09
68865;DHT22;55898;52.196;4.420;2022-07-17T13:14:42;37.09;27.07
68865;DHT22;55898;52.196;4.420;2022-07-17T13:17:08;37.18;26.29
68865;DHT22;55898;52.196;4.420;2022-07-17T13:19:33;37.19;26.84
68865;DHT22;55898;52.196;4.420;2022-07-17T13:22:00;36.75;26.86
68865;DHT22;55898;52.196;4.420;2022-07-17T13:24:26;36.82;27.33
68865;DHT22;55898;52.196;4.420;2022-07-17T13:26:52;37.16;26.96
68865;DHT22;55898;52.196;4.420;2022-07-17T13:29:18;36.88;26.47
68865;DHT22;55898;52.196;4.420;2022-07-17T13:31:43;36.91;27.15
68865;DHT22;55898;52.196;4.420;2022-07-17T13:34:09;37.15;26.23
68865;DHT22;55898;52.196;4.420;2022-07-17T13:36:35;37.16;26.90
68865;DHT22;55898;52.196;4.420;2022-07-17T13:39:00;37.19;27.10
68865;DHT22;55898;52.196;4.420;2022-07-17T13:41:26;37.40;25.92
68865;DHT22;55898;52.196;4.420;2022-07-17T13:43:51;37.77;26.34
68865;DHT22;55898;52.196;4.420;2022-07-17T13:46:17;38.11;26.41
68865;DHT22;55898;52.196;4.420;2022-07-17T13:48:42;38.21;25.71
68865;DHT22;55898;52.196;4.420;2022-07-17T13:51:08;38.00;25.68
68865;DHT22;55898;52.196;4.420;2022-07-17T13:53:34;37.94;26.06
68865;DHT22;55898;52.196;4.420;2022-07-17T13:56:00;38.08;26.14
68865;DHT22;55898;52.196;4.420;2022-07-17T13:58:26;38.28;25.51
68865;DHT22;55898;52.196;4.420;2022-07-17T14:00:51;37.84;25.53
68865;DHT22;55898;52.196;4.420;2022-07-17T14:03:17;37.85;26.17
68865;DHT22;55898;52.196;4.420;2022-07-17T14:05:42;38.02;26.36
68865;DHT22;55898;52.196;4.420;2022-07-17T14:08:08;38.02;26.56
68865;DHT22;55898;52.196;4.420;2022-07-17T14:10:34;38.01;26.07
68865;DHT22;55898;52.196;4.420;2022-07-17T14:12:59;38.12;25.63
68865;DHT22;55898;52.196;4.420;2022-07-17T14:15:24;38.33;25.21
68865;DHT22;55898;52.196;4.420;2022-07-17T14:17:50;38.28;24.62
68865;DHT22;55898;52.196;4.420;2022-07-17T14:20:16;37.98;25.31
68865;DHT22;55898;52.196;4.420;2022-07-17T14:22:41;38.12;25.75
68865;DHT22;55898;52.196;4.420;2022-07-17T14:25:07;38.28;24.60
68865;DHT22;55898;52.196;4.420;2022-07-17T14:27:32;37.87;25.58
68865;DHT22;55898;52.196;4.420;2022-07-17T14:29:58;38.07;25.34
68865;DHT22;55898;52.196;4.420;2022-07-17T14:32:23;38.02;25.29
68865;DHT22;55898;52.196;4.420;2022-07-17T14:34:49;37.66;25.81
68865;DHT22;55898;52.196;4.420;2022-07-17T14:37:14;37.73;25.68
68865;DHT22;55898;52.196;4.420;2022-07-17T14:39:40;38.35;25.75
68865;DHT22;55898;52.196;4.420;2022-07-17T14:42:05;38.25;25.34
68865;DHT22;55898;52.196;4.420;2022-07-17T14:44:31;38.17;25.14
68865;DHT22;55898;52.196;4.420;2022-07-17T14:46:58;38.27;24.32
68865;DHT22;55898;52.196;4.420;2022-07-17T14:49:25;38.02;25.81
68865;DHT22;55898;52.196;4.420;2022-07-17T14:51:50;37.77;26.20
68865;DHT22;55898;52.196;4.420;2022-07-17T14:54:16;37.54;26.45
68865;DHT22;55898;52.196;4.420;2022-07-17T14:56:41;37.19;26.63
68865;DHT22;55898;52.196;4.420;2022-07-17T14:59:07;37.50;26.23
68865;DHT22;55898;52.196;4.420;2022-07-17T15:01:33;37.85;25.62
68865;DHT22;55898;52.196;4.420;2022-07-17T15:03:59;38.15;25.82
68865;DHT22;55898;52.196;4.420;2022-07-17T15:06:24;38.04;26.39
68865;DHT22;55898;52.196;4.420;2022-07-17T15:08:50;37.23;26.46
68865;DHT22;55898;52.196;4.420;2022-07-17T15:11:15;36.60;28.07
68865;DHT22;55898;52.196;4.420;2022-07-17T15:13:41;36.41;28.10
68865;DHT22;55898;52.196;4.420;2022-07-17T15:16:06;36.37;28.83
68865;DHT22;55898;52.196;4.420;2022-07-17T15:18:32;36.10;28.62
68865;DHT22;55898;52.196;4.420;2022-07-17T15:20:58;35.52;29.10
68865;DHT22;55898;52.196;4.420;2022-07-17T15:23:23;35.07;30.06
68865;DHT22;55898;52.196;4.420;2022-07-17T15:25:49;34.73;30.61
68865;DHT22;55898;52.196;4.420;2022-07-17T15:28:14;34.97;30.27
68865;DHT22;55898;52.196;4.420;2022-07-17T15:30:40;35.07;30.69
68865;DHT22;55898;52.196;4.420;2022-07-17T15:33:05;34.95;31.04
68865;DHT22;55898;52.196;4.420;2022-07-17T15:35:31;34.88;31.53
68865;DHT22;55898;52.196;4.420;2022-07-17T15:37:56;34.52;31.63
68865;DHT22;55898;52.196;4.420;2022-07-17T15:40:23;34.10;32.10
68865;DHT22;55898;52.196;4.420;2022-07-17T15:42:49;33.78;32.31
68865;DHT22;55898;52.196;4.420;2022-07-17T15:45:15;33.75;32.60
68865;DHT22;55898;52.196;4.420;2022-07-17T15:47:41;33.67;32.91